Time;durP1;ratioP1;P1;durP2;ratioP2;P2;SDS_P1;SDS_P2;PMS_P1;PMS_P2;Temp;Humidity;BMP_temperature;BMP_pressure;BME280_temperature;BME280_humidity;BME280_pressure;Samples;Min_cycle;Max_cycle;Signal;HPM_P1;HPM_P2
2023/05/31 00:01:14;;;;;;;8.47;6.23;;;;;;;19.82;96.98;99502.63;5032133;28;20193;-68
2023/05/31 00:03:43;;;;;;;7.60;6.90;;;;;;;19.77;96.23;99499.06;5031981;28;20197;-69
2023/05/31 00:06:10;;;;;;;7.60;6.50;;;;;;;19.73;96.02;99508.72;5032411;28;20197;-68
2023/05/31 00:08:37;;;;;;;7.77;7.17;;;;;;;19.76;96.43;99506.31;5031997;28;20695;-68
2023/05/31 00:11:03;;;;;;;7.97;7.47;;;;;;;19.72;96.28;99507.06;5032330;28;20200;-69
2023/05/31 00:13:30;;;;;;;7.77;7.20;;;;;;;19.70;96.15;99514.63;5031937;28;20254;-68
2023/05/31 00:15:57;;;;;;;8.23;7.03;;;;;;;19.65;96.28;99501.88;5031953;28;20193;-68
2023/05/31 00:18:24;;;;;;;8.17;7.37;;;;;;;19.59;96.50;99502.09;5032158;28;20194;-68
2023/05/31 00:20:52;;;;;;;7.63;7.07;;;;;;;19.53;96.88;99511.19;5031876;28;20665;-68
2023/05/31 00:23:18;;;;;;;7.87;7.47;;;;;;;19.44;97.24;99507.34;5031819;28;20255;-69
2023/05/31 00:25:45;;;;;;;8.60;7.90;;;;;;;19.32;97.76;99512.03;5032132;28;20195;-69
2023/05/31 00:28:12;;;;;;;8.87;7.97;;;;;;;19.27;98.22;99511.97;5031840;28;20602;-69
2023/05/31 00:30:39;;;;;;;6.97;6.47;;;;;;;19.19;98.73;99507.81;5032047;28;20266;-69
2023/05/31 00:33:06;;;;;;;8.43;7.83;;;;;;;19.09;99.04;99513.09;5031698;28;20225;-68
2023/05/31 00:35:32;;;;;;;11.70;7.73;;;;;;;19.03;99.70;99513.28;5031682;28;20767;-69
2023/05/31 00:38:02;;;;;;;7.57;7.07;;;;;;;18.96;99.68;99507.25;5031687;28;20657;-69
2023/05/31 00:40:29;;;;;;;9.53;7.90;;;;;;;18.95;100.00;99516.41;5032069;28;20203;-68
2023/05/31 00:42:56;;;;;;;9.80;8.90;;;;;;;18.98;100.00;99522.09;5032073;28;20262;-68
2023/05/31 00:45:23;;;;;;;11.40;9.17;;;;;;;18.95;100.00;99517.19;5031760;28;20626;-68
2023/05/31 00:47:51;;;;;;;9.53;8.73;;;;;;;18.86;100.00;99517.88;5031963;28;20208;-69
2023/05/31 00:50:18;;;;;;;13.40;11.40;;;;;;;18.78;100.00;99519.13;5031515;28;20190;-69
2023/05/31 00:52:46;;;;;;;13.13;11.83;;;;;;;18.68;100.00;99527.06;5031568;28;20293;-68
2023/05/31 00:55:15;;;;;;;13.57;12.03;;;;;;;18.59;100.00;99531.19;5031820;28;20270;-68
2023/05/31 00:57:42;;;;;;;15.37;12.50;;;;;;;18.52;100.00;99524.38;5031335;28;20709;-68
2023/05/31 01:00:10;;;;;;;13.80;11.57;;;;;;;18.48;100.00;99523.25;5035658;28;20201;-69
2023/05/31 01:02:37;;;;;;;12.80;11.53;;;;;;;18.47;100.00;99518.94;5035421;28;20273;-69
2023/05/31 01:05:05;;;;;;;17.53;11.30;;;;;;;18.52;100.00;99517.13;5035675;28;20272;-69
2023/05/31 01:07:32;;;;;;;12.90;11.53;;;;;;;18.56;100.00;99520.13;5035731;28;20206;-69
2023/05/31 01:09:59;;;;;;;11.87;10.83;;;;;;;18.57;100.00;99522.56;5035182;28;20196;-69
2023/05/31 01:12:33;;;;;;;10.80;10.00;;;;;;;18.52;100.00;99521.69;5035295;28;20223;-69
2023/05/31 01:15:10;;;;;;;10.90;9.97;;;;;;;18.48;100.00;99524.06;5035129;28;20641;-69
2023/05/31 01:17:45;;;;;;;11.50;10.53;;;;;;;18.48;100.00;99528.63;5035644;28;20190;-68
2023/05/31 01:20:14;;;;;;;10.90;10.10;;;;;;;18.46;100.00;99522.69;5035097;28;20187;-69
2023/05/31 01:23:02;;;;;;;10.73;9.97;;;;;;;18.53;100.00;99534.06;5035574;28;20273;-68
2023/05/31 01:25:45;;;;;;;15.30;9.40;;;;;;;18.56;100.00;99533.59;5035345;28;20229;-68
2023/05/31 01:28:15;;;;;;;11.00;9.97;;;;;;;18.51;100.00;99536.22;5034993;28;20225;-68
2023/05/31 01:30:45;;;;;;;12.37;9.87;;;;;;;18.48;100.00;99526.75;5035361;28;20232;-68
2023/05/31 01:33:13;;;;;;;9.50;8.80;;;;;;;18.51;100.00;99533.50;5035088;28;20271;-68
2023/05/31 01:35:40;;;;;;;10.70;9.83;;;;;;;18.45;100.00;99526.41;5034549;28;20775;-68
2023/05/31 01:38:07;;;;;;;10.43;9.63;;;;;;;18.38;100.00;99529.28;5035313;28;20258;-67
2023/05/31 01:40:35;;;;;;;9.20;8.40;;;;;;;18.39;100.00;99522.03;5034619;28;20202;-67
2023/05/31 01:43:03;;;;;;;9.17;8.57;;;;;;;18.38;100.00;99523.88;5034930;28;20219;-68
2023/05/31 01:45:32;;;;;;;9.37;8.57;;;;;;;18.33;100.00;99523.78;5034744;28;20252;-68
2023/05/31 01:48:01;;;;;;;8.77;8.17;;;;;;;18.33;100.00;99528.38;5034885;28;20548;-68
2023/05/31 01:50:29;;;;;;;9.83;9.03;;;;;;;18.22;100.00;99531.94;5034737;28;20194;-68
2023/05/31 01:52:55;;;;;;;9.47;8.53;;;;;;;18.22;100.00;99534.63;5034751;28;20217;-68
2023/05/31 01:55:22;;;;;;;10.60;8.47;;;;;;;18.24;100.00;99522.56;5033880;28;20216;-67
2023/05/31 01:57:50;;;;;;;9.43;8.73;;;;;;;18.25;100.00;99536.84;5034392;28;20198;-68
2023/05/31 02:00:17;;;;;;;9.33;8.53;;;;;;;18.23;100.00;99533.56;5034557;28;20197;-67
2023/05/31 02:02:45;;;;;;;9.50;8.70;;;;;;;18.23;100.00;99541.63;5034637;28;20193;-68
2023/05/31 02:05:13;;;;;;;9.70;8.83;;;;;;;18.22;100.00;99529.25;5034107;28;20701;-68
2023/05/31 02:07:40;;;;;;;11.50;9.33;;;;;;;18.20;100.00;99537.56;5034251;28;20193;-68
2023/05/31 02:10:08;;;;;;;9.50;8.80;;;;;;;18.27;100.00;99529.34;5034106;28;20596;-69
2023/05/31 02:12:35;;;;;;;9.47;8.73;;;;;;;18.28;100.00;99539.03;5034135;28;20245;-68
2023/05/31 02:15:02;;;;;;;9.67;8.83;;;;;;;18.26;100.00;99533.09;5034207;28;20256;-68
2023/05/31 02:17:32;;;;;;;10.50;9.27;;;;;;;18.29;100.00;99537.97;5034361;28;20197;-67
2023/05/31 02:20:02;;;;;;;10.53;9.53;;;;;;;18.39;100.00;99535.47;5033927;28;20641;-68
2023/05/31 02:22:28;;;;;;;10.47;9.27;;;;;;;18.41;100.00;99536.03;5034274;28;20193;-67
2023/05/31 02:24:56;;;;;;;12.70;8.47;;;;;;;18.44;100.00;99536.38;5033731;28;20256;-68
2023/05/31 02:27:23;;;;;;;8.90;8.00;;;;;;;18.50;100.00;99534.59;5034313;28;20193;-67
2023/05/31 02:29:50;;;;;;;10.97;8.20;;;;;;;18.60;100.00;99540.09;5034114;28;20276;-68
2023/05/31 02:32:16;;;;;;;9.93;8.17;;;;;;;18.61;100.00;99539.03;5033993;28;20308;-68
2023/05/31 02:34:43;;;;;;;9.47;8.63;;;;;;;18.61;100.00;99541.72;5033928;28;20206;-68
2023/05/31 02:37:11;;;;;;;8.73;7.87;;;;;;;18.62;100.00;99540.69;5033480;28;20230;-67
2023/05/31 02:39:38;;;;;;;8.50;7.63;;;;;;;18.70;100.00;99541.06;5034068;28;20200;-68
2023/05/31 02:42:05;;;;;;;10.03;7.53;;;;;;;18.72;100.00;99538.97;5033767;28;20193;-68
2023/05/31 02:44:32;;;;;;;9.67;8.53;;;;;;;18.76;100.00;99541.97;5033901;28;20193;-68
2023/05/31 02:46:58;;;;;;;9.07;7.63;;;;;;;18.83;100.00;99540.72;5033334;28;20194;-69
2023/05/31 02:49:25;;;;;;;11.17;8.03;;;;;;;18.85;100.00;99543.16;5033406;28;20191;-68
2023/05/31 02:51:52;;;;;;;8.63;7.87;;;;;;;18.95;100.00;99554.09;5033839;28;20199;-68
2023/05/31 02:54:20;;;;;;;8.30;7.50;;;;;;;18.93;99.62;99538.19;5033278;28;20221;-68
2023/05/31 02:56:47;;;;;;;8.90;8.03;;;;;;;19.11;99.16;99553.22;5033237;28;20643;-69
2023/05/31 02:59:14;;;;;;;11.30;8.20;;;;;;;19.12;97.69;99549.47;5033525;28;20223;-68
2023/05/31 03:01:40;;;;;;;11.17;8.23;;;;;;;19.11;97.31;99553.22;5033143;28;20195;-68
2023/05/31 03:04:07;;;;;;;8.00;7.37;;;;;;;19.14;97.44;99558.91;5033254;28;20201;-69
2023/05/31 03:06:34;;;;;;;8.67;7.13;;;;;;;19.23;96.76;99561.97;5033047;28;20682;-68
2023/05/31 03:09:00;;;;;;;8.20;7.30;;;;;;;19.30;97.00;99558.09;5033367;28;20197;-68
2023/05/31 03:11:28;;;;;;;8.20;7.50;;;;;;;19.29;95.46;99566.41;5032967;28;20199;-68
2023/05/31 03:13:55;;;;;;;9.30;6.80;;;;;;;19.22;95.64;99560.34;5033198;28;20224;-67
2023/05/31 03:16:23;;;;;;;7.43;6.73;;;;;;;19.22;96.09;99555.78;5033035;28;20196;-68
2023/05/31 03:18:50;;;;;;;7.93;7.23;;;;;;;19.21;96.00;99556.03;5033294;28;20191;-67
2023/05/31 03:21:17;;;;;;;7.53;6.90;;;;;;;19.28;95.70;99554.00;5032447;28;20194;-67
2023/05/31 03:23:44;;;;;;;7.57;6.93;;;;;;;19.28;94.19;99559.41;5033117;28;20208;-67
2023/05/31 03:26:10;;;;;;;7.57;6.97;;;;;;;19.25;93.85;99557.19;5032824;28;20200;-68
2023/05/31 03:28:38;;;;;;;7.80;7.00;;;;;;;19.24;94.08;99560.97;5033013;28;20197;-68
2023/05/31 03:31:05;;;;;;;7.57;6.87;;;;;;;19.20;94.32;99567.88;5032545;28;20670;-68
2023/05/31 03:33:32;;;;;;;8.73;7.93;;;;;;;19.19;94.54;99567.06;5032859;28;20223;-68
2023/05/31 03:35:59;;;;;;;8.17;7.33;;;;;;;19.16;94.25;99564.06;5031870;28;20228;-68
2023/05/31 03:38:25;;;;;;;12.67;8.27;;;;;;;19.17;94.24;99571.06;5032810;28;20250;-68
2023/05/31 03:40:52;;;;;;;15.90;8.17;;;;;;;19.14;94.30;99571.56;5030859;28;20199;-68
2023/05/31 03:43:19;;;;;;;8.70;7.90;;;;;;;19.10;94.45;99568.56;5031474;28;20197;-69
2023/05/31 03:45:47;;;;;;;10.13;8.30;;;;;;;19.12;94.58;99573.69;5031766;28;20247;-68
2023/05/31 03:48:14;;;;;;;9.13;8.23;;;;;;;19.13;94.45;99578.84;5032205;28;20205;-68
2023/05/31 03:50:41;;;;;;;11.37;8.60;;;;;;;19.17;94.33;99563.81;5030306;28;20814;-69
2023/05/31 03:53:08;;;;;;;7.70;7.00;;;;;;;19.35;95.00;99565.41;5031047;28;20299;-70
2023/05/31 03:55:34;;;;;;;8.43;6.77;;;;;;;19.65;95.02;99569.25;5031092;28;20617;-68
2023/05/31 03:58:02;;;;;;;13.67;9.37;;;;;;;20.00;90.67;99574.22;5032208;28;20227;-69
2023/05/31 04:00:29;;;;;;;11.30;8.27;;;;;;;20.11;89.62;99576.81;5032485;28;20589;-68
2023/05/31 04:02:57;;;;;;;10.73;8.33;;;;;;;20.08;88.69;99576.47;5031915;28;20506;-68
2023/05/31 04:05:23;;;;;;;12.10;9.07;;;;;;;19.99;89.09;99578.81;5032143;28;20196;-69
2023/05/31 04:07:50;;;;;;;14.53;8.73;;;;;;;20.10;88.74;99579.75;5030865;28;20193;-69
2023/05/31 04:10:17;;;;;;;9.13;6.90;;;;;;;20.18;91.34;99576.59;5031823;28;20240;-69
2023/05/31 04:12:43;;;;;;;8.90;6.93;;;;;;;20.55;89.52;99577.47;5032002;28;20282;-69
2023/05/31 04:15:11;;;;;;;7.40;6.80;;;;;;;20.98;87.34;99588.03;5032039;28;20193;-72
2023/05/31 04:17:38;;;;;;;20.83;8.20;;;;;;;21.32;83.55;99586.63;5031684;28;20735;-72
2023/05/31 04:20:08;;;;;;;9.77;6.83;;;;;;;21.60;83.63;99594.28;5031976;28;20201;-73
2023/05/31 04:22:35;;;;;;;7.50;6.80;;;;;;;21.87;81.71;99588.72;5031924;28;20193;-74
2023/05/31 04:25:02;;;;;;;9.33;7.03;;;;;;;22.08;79.38;99596.63;5032197;28;20228;-73
2023/05/31 04:27:28;;;;;;;8.47;7.60;;;;;;;22.11;79.54;99596.09;5031629;28;20200;-72
2023/05/31 04:29:57;;;;;;;11.80;7.90;;;;;;;22.23;78.03;99599.38;5031807;28;20227;-73
2023/05/31 04:32:25;;;;;;;10.53;7.40;;;;;;;22.47;78.43;99592.38;5032892;28;20195;-73
2023/05/31 04:34:57;;;;;;;8.50;7.20;;;;;;;22.56;76.88;99600.75;5035513;28;20225;-76
2023/05/31 04:37:25;;;;;;;6.50;6.00;;;;;;;22.78;76.92;99610.22;5036267;28;20194;-76
2023/05/31 04:39:52;;;;;;;7.13;6.53;;;;;;;23.08;74.70;99610.19;5035899;28;20201;-81
2023/05/31 04:42:19;;;;;;;12.10;7.40;;;;;;;23.25;74.27;99616.16;5035827;28;20244;-78
2023/05/31 04:44:46;;;;;;;9.47;6.90;;;;;;;23.13;74.41;99615.63;5035965;28;20205;-77
2023/05/31 04:47:15;;;;;;;11.97;7.20;;;;;;;22.94;75.43;99625.41;5035495;28;20236;-77
2023/05/31 04:49:42;;;;;;;10.63;7.70;;;;;;;22.86;76.79;99612.41;5035829;28;20204;-79
2023/05/31 04:52:09;;;;;;;14.67;7.50;;;;;;;23.01;75.91;99620.50;5035710;28;20197;-80
2023/05/31 04:54:37;;;;;;;9.07;6.30;;;;;;;23.22;75.00;99624.84;5035796;28;20315;-70
2023/05/31 04:57:05;;;;;;;7.90;7.10;;;;;;;23.25;73.86;99643.28;5035208;28;20201;-71
2023/05/31 04:59:32;;;;;;;13.70;7.60;;;;;;;23.26;74.50;99636.75;5035053;28;20658;-68
2023/05/31 05:01:58;;;;;;;12.40;7.70;;;;;;;23.09;74.67;99644.34;5035189;28;20221;-70
2023/05/31 05:04:25;;;;;;;9.17;7.03;;;;;;;22.93;75.26;99639.22;5035152;28;20693;-69
2023/05/31 05:06:52;;;;;;;8.63;7.57;;;;;;;22.81;75.75;99644.91;5035488;28;20262;-67
2023/05/31 05:09:18;;;;;;;15.33;7.50;;;;;;;22.67;76.53;99648.44;5035439;28;20194;-66
2023/05/31 05:11:46;;;;;;;37.83;9.27;;;;;;;22.49;76.85;99643.53;5035309;28;20193;-67
2023/05/31 05:14:13;;;;;;;14.27;8.40;;;;;;;22.35;77.71;99640.53;5035201;28;20313;-66
2023/05/31 05:16:40;;;;;;;42.90;9.03;;;;;;;22.19;78.32;99638.88;5034401;28;20263;-68
2023/05/31 05:19:06;;;;;;;9.87;7.60;;;;;;;22.02;78.82;99638.31;5033332;28;20194;-65
2023/05/31 05:21:33;;;;;;;11.17;7.80;;;;;;;21.89;79.22;99643.38;5034769;28;20661;-66
2023/05/31 05:23:59;;;;;;;10.37;7.63;;;;;;;21.74;80.45;99646.03;5034800;28;20747;-67
2023/05/31 05:26:26;;;;;;;27.20;9.10;;;;;;;21.65;80.84;99653.81;5034811;28;20724;-66
2023/05/31 05:28:54;;;;;;;19.67;8.13;;;;;;;21.67;81.73;99648.94;5034691;28;20189;-66
2023/05/31 05:31:21;;;;;;;17.90;7.83;;;;;;;21.82;81.17;99653.63;5035115;28;20259;-67
2023/05/31 05:33:48;;;;;;;15.17;7.43;;;;;;;21.97;81.32;99651.78;5034834;28;20225;-68
2023/05/31 05:36:14;;;;;;;14.37;7.80;;;;;;;22.21;80.50;99663.75;5034847;28;20656;-69
2023/05/31 05:38:41;;;;;;;20.70;8.13;;;;;;;22.45;79.44;99664.06;5034656;28;20276;-67
2023/05/31 05:41:12;;;;;;;18.60;8.03;;;;;;;22.63;78.85;99667.13;5034744;28;20259;-67
2023/05/31 05:43:38;;;;;;;13.87;8.20;;;;;;;22.73;77.75;99669.84;5034112;28;20193;-67
2023/05/31 05:46:06;;;;;;;15.87;7.60;;;;;;;22.86;77.51;99666.56;5034322;28;20194;-67
2023/05/31 05:48:33;;;;;;;10.13;7.10;;;;;;;22.97;76.81;99684.47;5034393;28;20251;-67
2023/05/31 05:51:00;;;;;;;10.87;7.20;;;;;;;22.94;75.48;99679.59;5034682;28;20251;-67
2023/05/31 05:53:27;;;;;;;11.27;7.90;;;;;;;22.85;76.40;99675.81;5034054;28;20225;-67
2023/05/31 05:55:54;;;;;;;9.93;6.90;;;;;;;22.77;76.21;99689.06;5034310;28;20198;-67
2023/05/31 05:58:21;;;;;;;12.07;8.80;;;;;;;22.69;76.75;99682.28;5034397;28;20199;-67
2023/05/31 06:00:48;;;;;;;8.80;7.90;;;;;;;22.61;76.27;99680.13;5034469;28;20198;-66
2023/05/31 06:03:16;;;;;;;18.03;8.27;;;;;;;22.54;77.06;99687.69;5034325;28;20198;-66
2023/05/31 06:05:43;;;;;;;15.20;7.50;;;;;;;22.61;77.89;99680.13;5033943;28;20197;-66
2023/05/31 06:08:10;;;;;;;14.37;7.97;;;;;;;22.78;76.77;99690.72;5034114;28;20209;-67
2023/05/31 06:10:37;;;;;;;11.10;7.57;;;;;;;22.87;76.61;99683.66;5034211;28;20202;-66
2023/05/31 06:13:04;;;;;;;10.97;7.43;;;;;;;22.83;75.86;99688.00;5033347;28;20720;-66
2023/05/31 06:15:31;;;;;;;9.53;6.87;;;;;;;22.86;75.06;99699.09;5033798;28;20190;-66
2023/05/31 06:17:57;;;;;;;14.00;6.93;;;;;;;22.85;75.53;99697.47;5032526;28;20581;-67
2023/05/31 06:20:26;;;;;;;14.37;6.77;;;;;;;22.94;74.80;99685.00;5033551;28;20194;-67
2023/05/31 06:22:53;;;;;;;15.23;6.77;;;;;;;23.22;74.51;99702.63;5032769;28;20263;-67
2023/05/31 06:25:20;;;;;;;11.37;6.53;;;;;;;23.38;74.42;99696.94;5031971;28;20233;-67
2023/05/31 06:27:47;;;;;;;10.37;7.23;;;;;;;23.56;72.73;99699.03;5033397;28;20569;-67
2023/05/31 06:30:15;;;;;;;98.80;11.70;;;;;;;23.60;71.54;99702.03;5033919;28;20205;-67
2023/05/31 06:32:41;;;;;;;12.73;5.83;;;;;;;23.65;71.34;99691.16;5033536;28;20705;-67
2023/05/31 06:35:08;;;;;;;13.33;6.00;;;;;;;23.93;70.03;99702.22;5033347;28;20803;-67
2023/05/31 06:37:38;;;;;;;11.50;5.53;;;;;;;24.00;69.31;99697.31;5033901;28;20195;-67
2023/05/31 06:40:07;;;;;;;14.03;6.03;;;;;;;24.12;69.17;99697.78;5033434;28;20200;-67
2023/05/31 06:42:33;;;;;;;16.80;6.20;;;;;;;24.19;69.17;99698.31;5033422;28;20197;-67
2023/05/31 06:45:00;;;;;;;10.20;5.80;;;;;;;24.26;69.30;99704.22;5033309;28;20570;-67
2023/05/31 06:47:27;;;;;;;12.07;6.47;;;;;;;24.43;68.56;99698.44;5033816;28;20204;-67
2023/05/31 06:49:53;;;;;;;18.07;7.60;;;;;;;24.67;68.61;99705.63;5033572;28;20265;-65
2023/05/31 06:52:20;;;;;;;11.23;6.33;;;;;;;24.81;67.53;99706.63;5033079;28;20278;-69
2023/05/31 06:54:50;;;;;;;14.27;6.33;;;;;;;24.90;67.30;99699.47;5033339;28;20220;-69
2023/05/31 06:57:17;;;;;;;10.20;5.80;;;;;;;24.98;66.86;99702.69;5032708;28;20262;-67
2023/05/31 06:59:44;;;;;;;14.03;6.80;;;;;;;25.17;66.47;99698.16;5032942;28;20527;-67
2023/05/31 07:02:11;;;;;;;10.80;6.50;;;;;;;25.16;65.43;99697.38;5032996;28;20201;-68
2023/05/31 07:04:37;;;;;;;13.07;5.50;;;;;;;25.16;65.96;99691.94;5031859;28;20212;-66
2023/05/31 07:07:05;;;;;;;12.67;6.00;;;;;;;25.50;65.15;99700.03;5031825;28;20264;-67
2023/05/31 07:09:31;;;;;;;14.10;6.47;;;;;;;25.83;63.93;99699.13;5032420;28;20255;-66
2023/05/31 07:12:00;;;;;;;29.37;6.47;;;;;;;26.14;62.32;99705.84;5032552;28;20193;-68
2023/05/31 07:14:27;;;;;;;9.70;5.33;;;;;;;26.34;60.66;99709.09;5031605;28;20224;-69
2023/05/31 07:16:54;;;;;;;6.10;5.50;;;;;;;26.46;60.94;99706.75;5032655;28;20414;-68
2023/05/31 07:19:21;;;;;;;8.33;5.57;;;;;;;26.76;59.10;99716.44;5031640;28;20727;-68
2023/05/31 07:21:48;;;;;;;11.43;5.30;;;;;;;26.83;59.24;99716.88;5030641;28;20247;-68
2023/05/31 07:24:15;;;;;;;8.60;4.83;;;;;;;26.88;58.84;99720.34;5030750;28;20195;-68
2023/05/31 07:26:41;;;;;;;14.20;5.67;;;;;;;26.88;59.11;99708.63;5030505;28;20197;-68
2023/05/31 07:29:09;;;;;;;12.90;5.10;;;;;;;27.07;59.03;99707.47;5030627;28;20275;-69
2023/05/31 07:31:36;;;;;;;6.10;4.63;;;;;;;27.07;58.29;99709.41;5032326;28;20295;-68
2023/05/31 07:34:03;;;;;;;5.50;5.00;;;;;;;26.68;58.41;99704.31;5030557;28;20701;-68
2023/05/31 07:36:30;;;;;;;5.83;5.10;;;;;;;26.52;59.76;99707.50;5031400;28;20624;-69
2023/05/31 07:38:56;;;;;;;15.90;5.20;;;;;;;26.49;60.47;99699.91;5030993;28;20649;-68
2023/05/31 07:41:23;;;;;;;10.40;6.00;;;;;;;26.54;58.71;99702.59;5032290;28;20252;-68
2023/05/31 07:43:50;;;;;;;5.57;5.13;;;;;;;26.49;59.60;99699.91;5031201;28;20197;-68
2023/05/31 07:46:18;;;;;;;7.07;5.30;;;;;;;26.31;60.27;99704.28;5032107;28;20239;-69
2023/05/31 07:48:45;;;;;;;9.93;5.13;;;;;;;26.24;60.94;99692.91;5032349;28;20189;-68
2023/05/31 07:51:11;;;;;;;21.83;6.17;;;;;;;26.24;62.27;99687.47;5032084;28;20194;-69
2023/05/31 07:53:39;;;;;;;9.40;5.73;;;;;;;26.02;61.09;99689.13;5031684;28;20197;-69
2023/05/31 07:56:06;;;;;;;6.93;5.33;;;;;;;26.20;61.54;99697.31;5031889;28;20216;-68
2023/05/31 07:58:33;;;;;;;9.70;5.53;;;;;;;26.24;62.77;99692.91;5031861;28;20202;-68
2023/05/31 08:01:00;;;;;;;15.43;6.50;;;;;;;26.19;62.24;99700.34;5031380;28;20275;-68
2023/05/31 08:03:28;;;;;;;6.03;5.43;;;;;;;26.10;62.84;99696.66;5032385;28;20193;-69
2023/05/31 08:05:55;;;;;;;5.10;4.70;;;;;;;26.11;61.60;99698.25;5032115;28;20193;-68
2023/05/31 08:08:21;;;;;;;8.77;5.10;;;;;;;26.13;61.23;99704.25;5031834;28;20255;-68
2023/05/31 08:10:48;;;;;;;11.53;5.37;;;;;;;26.10;61.72;99696.66;5032195;28;20205;-69
2023/05/31 08:13:15;;;;;;;10.70;5.83;;;;;;;26.08;61.93;99698.84;5032134;28;20200;-69
2023/05/31 08:15:41;;;;;;;10.23;4.87;;;;;;;26.24;61.27;99703.00;5031577;28;20225;-68
2023/05/31 08:18:08;;;;;;;8.23;5.00;;;;;;;26.38;62.33;99701.97;5032002;28;20193;-68
2023/05/31 08:20:36;;;;;;;6.57;4.67;;;;;;;26.54;60.23;99702.59;5031759;28;20204;-68
2023/05/31 08:23:03;;;;;;;4.87;4.47;;;;;;;26.60;58.38;99706.88;5032067;28;20225;-68
2023/05/31 08:25:30;;;;;;;5.33;4.50;;;;;;;26.54;58.29;99708.03;5031875;28;20255;-68
2023/05/31 08:27:56;;;;;;;8.73;4.57;;;;;;;26.53;59.22;99700.94;5032001;28;20249;-68
2023/05/31 08:30:23;;;;;;;14.17;6.50;;;;;;;26.87;58.84;99693.38;5031809;28;20197;-68
2023/05/31 08:32:50;;;;;;;22.20;5.67;;;;;;;27.12;58.50;99695.69;5031650;28;20623;-68
2023/05/31 08:35:16;;;;;;;9.80;5.70;;;;;;;27.64;56.32;99701.56;5031444;28;20236;-68
2023/05/31 08:37:45;;;;;;;30.40;7.23;;;;;;;28.03;55.49;99690.16;5031809;28;20193;-68
2023/05/31 08:40:12;;;;;;;15.57;6.50;;;;;;;28.19;55.09;99692.28;5032004;28;20251;-68
2023/05/31 08:42:41;;;;;;;7.80;5.27;;;;;;;28.19;55.74;99692.28;5031623;28;20197;-65
2023/05/31 08:45:10;;;;;;;31.87;6.90;;;;;;;28.38;54.40;99689.41;5031717;28;20276;-67
2023/05/31 08:47:40;;;;;;;9.57;5.63;;;;;;;28.58;54.51;99688.97;5031489;28;20201;-66
2023/05/31 08:50:09;;;;;;;11.47;5.37;;;;;;;28.86;53.61;99685.81;5031329;28;20216;-67
2023/05/31 08:52:37;;;;;;;11.03;4.80;;;;;;;28.91;52.43;99687.63;5031380;28;20207;-67
2023/05/31 08:55:06;;;;;;;11.20;5.47;;;;;;;29.08;51.96;99682.28;5031173;28;20279;-66
2023/05/31 08:57:35;;;;;;;8.80;5.07;;;;;;;29.07;51.24;99669.72;5031026;28;20213;-66
2023/05/31 09:00:08;;;;;;;6.03;5.30;;;;;;;29.08;52.63;99666.66;5030983;28;20194;-66
2023/05/31 09:02:36;;;;;;;5.20;4.77;;;;;;;29.32;51.21;99655.38;5030738;28;20186;-67
2023/05/31 09:05:03;;;;;;;7.00;5.53;;;;;;;29.64;51.08;99655.06;5030411;28;20197;-67
2023/05/31 09:07:30;;;;;;;5.90;4.90;;;;;;;29.70;51.21;99652.97;5030716;28;20193;-66
2023/05/31 09:09:57;;;;;;;5.43;5.10;;;;;;;29.66;51.28;99650.06;5029792;28;20201;-67
2023/05/31 09:12:25;;;;;;;6.57;5.93;;;;;;;29.81;49.52;99644.19;5028655;28;20630;-68
2023/05/31 09:14:52;;;;;;;11.53;5.60;;;;;;;29.86;51.08;99649.50;5028819;28;20283;-67
2023/05/31 09:17:19;;;;;;;6.77;6.03;;;;;;;30.03;49.86;99644.06;5027672;28;20251;-68
2023/05/31 09:19:51;;;;;;;10.27;5.67;;;;;;;30.23;48.04;99643.47;5030625;28;20196;-70
2023/05/31 09:22:17;;;;;;;5.67;4.70;;;;;;;30.49;48.67;99647.03;5028222;28;20376;-69
2023/05/31 09:24:50;;;;;;;6.07;5.47;;;;;;;30.58;45.79;99642.34;5031655;28;20201;-67
2023/05/31 09:27:17;;;;;;;8.63;5.50;;;;;;;30.73;46.20;99635.56;5030633;28;20205;-67
2023/05/31 09:29:52;;;;;;;6.17;5.57;;;;;;;30.87;45.06;99633.47;5033619;28;20197;-66
2023/05/31 09:32:19;;;;;;;6.10;5.50;;;;;;;30.98;45.42;99629.22;5033015;28;20185;-67
2023/05/31 09:34:46;;;;;;;5.13;4.77;;;;;;;30.95;43.52;99622.47;5033534;28;20235;-67
2023/05/31 09:37:23;;;;;;;5.47;5.07;;;;;;;30.93;43.13;99613.78;5032505;28;20189;-69
2023/05/31 09:39:56;;;;;;;9.27;4.87;;;;;;;31.19;43.32;99617.22;5032513;28;20188;-70
2023/05/31 09:42:26;;;;;;;11.07;6.07;;;;;;;31.20;43.34;99615.31;5032612;28;20193;-68
2023/05/31 09:44:54;;;;;;;5.93;5.47;;;;;;;30.76;43.91;99611.06;5032542;28;20205;-66
2023/05/31 09:47:24;;;;;;;10.53;5.97;;;;;;;30.74;44.98;99607.03;5032850;28;20221;-67
2023/05/31 09:49:53;;;;;;;6.60;6.00;;;;;;;30.90;44.54;99603.44;5033138;28;20628;-68
2023/05/31 09:52:27;;;;;;;7.03;5.83;;;;;;;31.21;42.76;99595.75;5033038;28;20220;-67
2023/05/31 09:54:56;;;;;;;5.73;5.30;;;;;;;31.36;41.93;99600.72;5033134;28;20247;-68
2023/05/31 09:57:32;;;;;;;8.53;5.97;;;;;;;31.17;41.65;99596.72;5032735;28;20724;-70
2023/05/31 10:00:00;;;;;;;10.13;5.57;;;;;;;31.06;42.92;99579.81;5033358;28;20695;-67
2023/05/31 10:02:28;;;;;;;6.50;6.00;;;;;;;31.13;42.07;99584.81;5034639;28;20640;-66
2023/05/31 10:04:57;;;;;;;11.67;5.60;;;;;;;31.33;41.88;99600.59;5034472;28;20225;-68
2023/05/31 10:07:24;;;;;;;6.40;5.80;;;;;;;31.45;39.78;99582.28;5034403;28;20197;-68
2023/05/31 10:09:51;;;;;;;5.83;5.23;;;;;;;31.54;40.06;99590.47;5034103;28;20570;-67
2023/05/31 10:12:21;;;;;;;5.53;5.13;;;;;;;31.45;39.58;99582.28;5033950;28;20673;-67
2023/05/31 10:14:56;;;;;;;9.77;5.93;;;;;;;31.56;40.46;99578.00;5034305;28;20213;-68
2023/05/31 10:17:27;;;;;;;6.60;5.97;;;;;;;31.60;39.81;99580.91;5033971;28;20191;-67
2023/05/31 10:20:01;;;;;;;7.77;5.60;;;;;;;31.20;39.60;99579.63;5034350;28;20576;-66
2023/05/31 10:22:31;;;;;;;6.63;5.70;;;;;;;31.02;39.37;99567.06;5034157;28;20240;-65
2023/05/31 10:25:10;;;;;;;6.67;6.07;;;;;;;31.09;40.18;99573.69;5034315;28;20221;-68
2023/05/31 10:27:39;;;;;;;6.90;5.40;;;;;;;30.64;40.03;99572.47;5034127;28;20192;-67
2023/05/31 10:30:09;;;;;;;5.83;5.17;;;;;;;30.76;39.78;99558.94;5033636;28;20201;-67
2023/05/31 10:32:44;;;;;;;7.17;5.97;;;;;;;30.56;40.19;99562.34;5034039;28;20185;-72
2023/05/31 10:35:11;;;;;;;6.07;5.67;;;;;;;30.29;40.15;99562.66;5033517;28;20707;-70
2023/05/31 10:37:40;;;;;;;5.17;4.77;;;;;;;30.33;39.56;99552.69;5033939;28;20193;-71
2023/05/31 10:40:13;;;;;;;7.53;6.30;;;;;;;30.55;39.06;99547.03;5033475;28;20243;-71
2023/05/31 10:42:46;;;;;;;5.93;4.97;;;;;;;30.59;39.38;99542.50;5031928;28;20185;-70
2023/05/31 10:45:17;;;;;;;6.07;5.67;;;;;;;30.29;37.34;99564.63;5032384;28;20189;-69
2023/05/31 10:47:52;;;;;;;5.70;5.20;;;;;;;30.19;37.45;99532.88;5032292;28;20189;-68
2023/05/31 10:50:20;;;;;;;6.37;5.67;;;;;;;29.96;39.43;99508.66;5032696;28;20884;-68
2023/05/31 10:52:49;;;;;;;5.50;5.10;;;;;;;30.29;37.94;99529.78;5032298;28;20198;-67
2023/05/31 10:55:18;;;;;;;6.57;5.07;;;;;;;30.44;34.51;99522.97;5032339;28;20290;-69
2023/05/31 10:57:44;;;;;;;6.40;5.07;;;;;;;30.18;38.25;99525.78;5032743;28;20223;-68
2023/05/31 11:00:12;;;;;;;6.63;5.17;;;;;;;29.95;38.93;99529.78;5030654;28;20259;-69
2023/05/31 11:02:47;;;;;;;5.10;4.83;;;;;;;30.18;36.59;99520.28;5029806;28;20601;-68
2023/05/31 11:05:21;;;;;;;5.33;4.83;;;;;;;30.25;36.97;99519.81;5028107;28;20248;-69
2023/05/31 11:07:48;;;;;;;9.60;5.13;;;;;;;30.25;35.73;99509.63;5029493;28;20201;-68
2023/05/31 11:10:26;;;;;;;5.00;4.60;;;;;;;30.32;35.56;99504.47;5029787;28;20193;-70
2023/05/31 11:12:53;;;;;;;10.10;5.40;;;;;;;29.93;36.93;99510.09;5027937;28;20213;-68
2023/05/31 11:15:19;;;;;;;9.40;5.37;;;;;;;30.09;38.30;99510.44;5030673;28;20217;-68
2023/05/31 11:17:55;;;;;;;5.47;4.83;;;;;;;30.25;36.11;99503.34;5027297;28;20255;-69
2023/05/31 11:20:22;;;;;;;7.23;4.87;;;;;;;30.38;36.52;99500.41;5028610;28;20191;-69
2023/05/31 11:23:27;;;;;;;4.83;4.53;;;;;;;30.50;36.56;99499.75;5030743;28;20193;-70
2023/05/31 11:26:18;;;;;;;5.13;4.83;;;;;;;30.25;37.14;99495.91;5030330;28;20185;-70
2023/05/31 11:28:53;;;;;;;5.90;5.20;;;;;;;30.05;37.24;99493.81;5030972;28;20182;-68
2023/05/31 11:32:01;;;;;;;5.37;5.07;;;;;;;30.04;38.20;99494.16;5030435;28;20185;-69